sensor_id;sensor_type;location;lat;lon;timestamp;pressure;altitude;pressure_sealevel;temperature;humidity
78986;BME280;68384;55.750;48.746;2023-05-07T00:00:32;99616.66;;;0.70;69.48
78986;BME280;68384;55.750;48.746;2023-05-07T00:01:36;99601.19;;;0.56;68.77
78986;BME280;68384;55.750;48.746;2023-05-07T00:02:40;99611.72;;;0.60;68.60
78986;BME280;68384;55.750;48.746;2023-05-07T00:03:43;99619.81;;;0.66;68.17
78986;BME280;68384;55.750;48.746;2023-05-07T00:04:48;99613.00;;;0.67;68.45
78986;BME280;68384;55.750;48.746;2023-05-07T00:05:51;99613.69;;;0.64;68.23
78986;BME280;68384;55.750;48.746;2023-05-07T00:06:56;99625.59;;;0.64;68.03
78986;BME280;68384;55.750;48.746;2023-05-07T00:07:59;99614.78;;;0.68;67.95
78986;BME280;68384;55.750;48.746;2023-05-07T00:09:03;99613.81;;;0.66;68.13
78986;BME280;68384;55.750;48.746;2023-05-07T00:10:07;99624.00;;;0.66;68.45
78986;BME280;68384;55.750;48.746;2023-05-07T00:11:11;99615.47;;;0.65;68.35
78986;BME280;68384;55.750;48.746;2023-05-07T00:12:14;99621.53;;;0.67;68.66
78986;BME280;68384;55.750;48.746;2023-05-07T00:13:19;99618.09;;;0.67;68.88
78986;BME280;68384;55.750;48.746;2023-05-07T00:14:22;99613.91;;;0.67;68.89
78986;BME280;68384;55.750;48.746;2023-05-07T00:15:26;99616.44;;;0.67;69.42
78986;BME280;68384;55.750;48.746;2023-05-07T00:16:28;99616.22;;;0.64;69.29
78986;BME280;68384;55.750;48.746;2023-05-07T00:17:33;99619.47;;;0.62;69.43
78986;BME280;68384;55.750;48.746;2023-05-07T00:18:36;99624.56;;;0.62;69.56
78986;BME280;68384;55.750;48.746;2023-05-07T00:19:40;99620.16;;;0.59;69.81
78986;BME280;68384;55.750;48.746;2023-05-07T00:20:43;99616.97;;;0.50;69.58
78986;BME280;68384;55.750;48.746;2023-05-07T00:21:47;99634.47;;;0.57;69.51
78986;BME280;68384;55.750;48.746;2023-05-07T00:22:50;99620.75;;;0.55;69.51
78986;BME280;68384;55.750;48.746;2023-05-07T00:23:53;99635.25;;;0.56;69.33
78986;BME280;68384;55.750;48.746;2023-05-07T00:24:56;99622.50;;;0.56;69.45
78986;BME280;68384;55.750;48.746;2023-05-07T00:26:00;99605.38;;;0.42;69.14
78986;BME280;68384;55.750;48.746;2023-05-07T00:27:03;99620.53;;;0.52;69.41
78986;BME280;68384;55.750;48.746;2023-05-07T00:28:07;99628.06;;;0.51;69.21
78986;BME280;68384;55.750;48.746;2023-05-07T00:29:11;99621.31;;;0.51;69.26
78986;BME280;68384;55.750;48.746;2023-05-07T00:30:16;99625.41;;;0.49;69.79
78986;BME280;68384;55.750;48.746;2023-05-07T00:31:19;99622.66;;;0.46;69.68
78986;BME280;68384;55.750;48.746;2023-05-07T00:32:23;99620.09;;;0.46;70.21
78986;BME280;68384;55.750;48.746;2023-05-07T00:33:26;99624.31;;;0.46;69.94
78986;BME280;68384;55.750;48.746;2023-05-07T00:34:30;99624.44;;;0.47;69.96
78986;BME280;68384;55.750;48.746;2023-05-07T00:35:33;99622.56;;;0.45;70.56
78986;BME280;68384;55.750;48.746;2023-05-07T00:36:37;99626.66;;;0.43;70.34
78986;BME280;68384;55.750;48.746;2023-05-07T00:37:39;99623.22;;;0.42;69.91
78986;BME280;68384;55.750;48.746;2023-05-07T00:38:44;99633.13;;;0.38;69.18
78986;BME280;68384;55.750;48.746;2023-05-07T00:39:46;99627.94;;;0.36;68.93
78986;BME280;68384;55.750;48.746;2023-05-07T00:40:50;99621.94;;;0.36;69.62
78986;BME280;68384;55.750;48.746;2023-05-07T00:41:53;99625.38;;;0.36;69.73
78986;BME280;68384;55.750;48.746;2023-05-07T00:42:57;99623.81;;;0.38;69.25
78986;BME280;68384;55.750;48.746;2023-05-07T00:44:02;99618.72;;;0.38;69.65
78986;BME280;68384;55.750;48.746;2023-05-07T00:45:08;99629.59;;;0.36;70.08
78986;BME280;68384;55.750;48.746;2023-05-07T00:46:13;99623.50;;;0.34;70.02
78986;BME280;68384;55.750;48.746;2023-05-07T00:47:18;99623.59;;;0.35;70.17
78986;BME280;68384;55.750;48.746;2023-05-07T00:48:23;99625.16;;;0.33;70.34
78986;BME280;68384;55.750;48.746;2023-05-07T00:49:32;99620.97;;;0.34;70.61
78986;BME280;68384;55.750;48.746;2023-05-07T00:50:38;99620.84;;;0.32;70.86
78986;BME280;68384;55.750;48.746;2023-05-07T00:51:41;99619.84;;;0.30;70.91
78986;BME280;68384;55.750;48.746;2023-05-07T00:52:45;99626.72;;;0.31;71.07
78986;BME280;68384;55.750;48.746;2023-05-07T00:53:48;99628.47;;;0.32;71.31
78986;BME280;68384;55.750;48.746;2023-05-07T00:54:53;99617.31;;;0.30;71.47
78986;BME280;68384;55.750;48.746;2023-05-07T00:55:57;99621.41;;;0.28;71.80
78986;BME280;68384;55.750;48.746;2023-05-07T00:57:03;99621.09;;;0.24;72.05
78986;BME280;68384;55.750;48.746;2023-05-07T00:58:06;99627.75;;;0.22;71.82
78986;BME280;68384;55.750;48.746;2023-05-07T00:59:10;99621.75;;;0.21;71.96
78986;BME280;68384;55.750;48.746;2023-05-07T01:00:15;99630.38;;;0.23;72.34
78986;BME280;68384;55.750;48.746;2023-05-07T01:01:20;99624.31;;;0.21;72.75
78986;BME280;68384;55.750;48.746;2023-05-07T01:02:23;99627.75;;;0.22;72.95
78986;BME280;68384;55.750;48.746;2023-05-07T01:03:27;99630.38;;;0.23;72.79
78986;BME280;68384;55.750;48.746;2023-05-07T01:04:31;99628.72;;;0.24;72.72
78986;BME280;68384;55.750;48.746;2023-05-07T01:05:35;99628.63;;;0.22;73.11
78986;BME280;68384;55.750;48.746;2023-05-07T01:06:39;99621.66;;;0.19;73.22
78986;BME280;68384;55.750;48.746;2023-05-07T01:07:45;99631.75;;;0.18;73.52
78986;BME280;68384;55.750;48.746;2023-05-07T01:08:48;99625.56;;;0.14;73.62
78986;BME280;68384;55.750;48.746;2023-05-07T01:09:55;99629.78;;;0.14;73.68
78986;BME280;68384;55.750;48.746;2023-05-07T01:10:59;99628.88;;;0.13;73.92
78986;BME280;68384;55.750;48.746;2023-05-07T01:12:04;99627.22;;;0.14;73.60
78986;BME280;68384;55.750;48.746;2023-05-07T01:13:07;99639.97;;;0.14;74.07
78986;BME280;68384;55.750;48.746;2023-05-07T01:14:11;99641.53;;;0.12;73.69
78986;BME280;68384;55.750;48.746;2023-05-07T01:15:16;99637.97;;;0.10;73.43
78986;BME280;68384;55.750;48.746;2023-05-07T01:16:21;99644.19;;;0.13;73.45
78986;BME280;68384;55.750;48.746;2023-05-07T01:17:24;99637.22;;;0.11;73.60
78986;BME280;68384;55.750;48.746;2023-05-07T01:18:28;99645.84;;;0.13;73.91
78986;BME280;68384;55.750;48.746;2023-05-07T01:19:32;99644.94;;;0.12;74.40
78986;BME280;68384;55.750;48.746;2023-05-07T01:20:37;99640.88;;;0.14;74.27
78986;BME280;68384;55.750;48.746;2023-05-07T01:21:45;99640.88;;;0.14;74.24
78986;BME280;68384;55.750;48.746;2023-05-07T01:22:52;99635.63;;;0.13;74.13
78986;BME280;68384;55.750;48.746;2023-05-07T01:23:56;99638.19;;;0.13;73.66
78986;BME280;68384;55.750;48.746;2023-05-07T01:25:01;99644.84;;;0.11;73.37
78986;BME280;68384;55.750;48.746;2023-05-07T01:26:06;99641.41;;;0.10;73.42
78986;BME280;68384;55.750;48.746;2023-05-07T01:27:10;99642.53;;;0.14;73.36
78986;BME280;68384;55.750;48.746;2023-05-07T01:28:13;99642.31;;;0.11;73.23
78986;BME280;68384;55.750;48.746;2023-05-07T01:29:18;99632.13;;;0.11;73.27
78986;BME280;68384;55.750;48.746;2023-05-07T01:30:22;99638.09;;;0.11;73.14
78986;BME280;68384;55.750;48.746;2023-05-07T01:31:27;99636.31;;;0.10;73.25
78986;BME280;68384;55.750;48.746;2023-05-07T01:32:35;99645.97;;;0.14;73.23
78986;BME280;68384;55.750;48.746;2023-05-07T01:33:40;99639.28;;;0.16;73.08
78986;BME280;68384;55.750;48.746;2023-05-07T01:34:45;99641.84;;;0.16;73.13
78986;BME280;68384;55.750;48.746;2023-05-07T01:35:53;99639.38;;;0.18;73.31
78986;BME280;68384;55.750;48.746;2023-05-07T01:36:56;99634.28;;;0.18;73.33
78986;BME280;68384;55.750;48.746;2023-05-07T01:38:04;99647.72;;;0.15;73.45
78986;BME280;68384;55.750;48.746;2023-05-07T01:39:09;99643.03;;;0.22;73.40
78986;BME280;68384;55.750;48.746;2023-05-07T01:40:14;99641.38;;;0.22;73.54
78986;BME280;68384;55.750;48.746;2023-05-07T01:41:17;99614.47;;;0.14;73.50
78986;BME280;68384;55.750;48.746;2023-05-07T01:42:21;99637.47;;;0.27;73.28
78986;BME280;68384;55.750;48.746;2023-05-07T01:43:25;99640.47;;;0.33;73.45
78986;BME280;68384;55.750;48.746;2023-05-07T01:44:29;99643.22;;;0.36;73.24
78986;BME280;68384;55.750;48.746;2023-05-07T01:45:34;99638.44;;;0.41;73.37
78986;BME280;68384;55.750;48.746;2023-05-07T01:46:38;99638.63;;;0.44;73.40
78986;BME280;68384;55.750;48.746;2023-05-07T01:47:42;99636.19;;;0.45;73.47
78986;BME280;68384;55.750;48.746;2023-05-07T01:48:47;99638.94;;;0.48;73.54
78986;BME280;68384;55.750;48.746;2023-05-07T01:49:50;99644.16;;;0.50;73.84
78986;BME280;68384;55.750;48.746;2023-05-07T01:50:55;99639.28;;;0.53;73.54
78986;BME280;68384;55.750;48.746;2023-05-07T01:51:58;99643.78;;;0.57;73.90
78986;BME280;68384;55.750;48.746;2023-05-07T01:53:04;99648.31;;;0.61;73.57
78986;BME280;68384;55.750;48.746;2023-05-07T01:54:07;99650.19;;;0.63;73.49
78986;BME280;68384;55.750;48.746;2023-05-07T01:55:11;99643.44;;;0.64;73.48
78986;BME280;68384;55.750;48.746;2023-05-07T01:56:15;99647.66;;;0.63;73.84
78986;BME280;68384;55.750;48.746;2023-05-07T01:57:19;99646.28;;;0.68;73.92
78986;BME280;68384;55.750;48.746;2023-05-07T01:58:21;99649.81;;;0.70;74.06
78986;BME280;68384;55.750;48.746;2023-05-07T01:59:26;99650.78;;;0.72;74.50
78986;BME280;68384;55.750;48.746;2023-05-07T02:00:29;99652.56;;;0.73;75.09
78986;BME280;68384;55.750;48.746;2023-05-07T02:01:33;99653.75;;;0.78;74.81
78986;BME280;68384;55.750;48.746;2023-05-07T02:02:36;99652.19;;;0.80;74.98
78986;BME280;68384;55.750;48.746;2023-05-07T02:03:40;99644.66;;;0.82;75.31
78986;BME280;68384;55.750;48.746;2023-05-07T02:04:51;99649.28;;;0.88;75.64
78986;BME280;68384;55.750;48.746;2023-05-07T02:05:56;99658.03;;;0.91;75.60
78986;BME280;68384;55.750;48.746;2023-05-07T02:07:11;99643.38;;;0.89;75.70
78986;BME280;68384;55.750;48.746;2023-05-07T02:08:18;99648.13;;;0.96;75.37
78986;BME280;68384;55.750;48.746;2023-05-07T02:09:21;99654.19;;;0.98;75.04
78986;BME280;68384;55.750;48.746;2023-05-07T02:10:26;99650.06;;;1.00;74.70
78986;BME280;68384;55.750;48.746;2023-05-07T02:11:29;99651.84;;;1.01;74.49
78986;BME280;68384;55.750;48.746;2023-05-07T02:12:33;99656.97;;;1.01;74.48
78986;BME280;68384;55.750;48.746;2023-05-07T02:13:36;99657.25;;;1.05;74.48
78986;BME280;68384;55.750;48.746;2023-05-07T02:14:41;99662.56;;;1.08;74.57
78986;BME280;68384;55.750;48.746;2023-05-07T02:15:46;99658.28;;;1.07;74.38
78986;BME280;68384;55.750;48.746;2023-05-07T02:16:53;99663.66;;;1.12;74.61
78986;BME280;68384;55.750;48.746;2023-05-07T02:18:01;99663.56;;;1.10;74.43
78986;BME280;68384;55.750;48.746;2023-05-07T02:19:06;99661.19;;;1.13;74.44
78986;BME280;68384;55.750;48.746;2023-05-07T02:20:11;99659.66;;;1.15;74.55
78986;BME280;68384;55.750;48.746;2023-05-07T02:21:36;99656.41;;;1.18;74.57
78986;BME280;68384;55.750;48.746;2023-05-07T02:22:41;99668.50;;;1.20;74.46
78986;BME280;68384;55.750;48.746;2023-05-07T02:23:45;99667.03;;;1.24;74.16
78986;BME280;68384;55.750;48.746;2023-05-07T02:24:49;99673.13;;;1.26;74.62
78986;BME280;68384;55.750;48.746;2023-05-07T02:25:52;99671.94;;;1.21;74.51
78986;BME280;68384;55.750;48.746;2023-05-07T02:26:56;99671.13;;;1.22;74.70
78986;BME280;68384;55.750;48.746;2023-05-07T02:27:59;99674.09;;;1.28;74.67
78986;BME280;68384;55.750;48.746;2023-05-07T02:29:19;99677.34;;;1.25;75.07
78986;BME280;68384;55.750;48.746;2023-05-07T02:30:24;99679.69;;;1.35;74.95
78986;BME280;68384;55.750;48.746;2023-05-07T02:31:29;99687.56;;;1.38;74.69
78986;BME280;68384;55.750;48.746;2023-05-07T02:32:33;99681.47;;;1.36;74.29
78986;BME280;68384;55.750;48.746;2023-05-07T02:33:36;99684.59;;;1.32;74.51
78986;BME280;68384;55.750;48.746;2023-05-07T02:34:42;99678.03;;;1.36;74.13
78986;BME280;68384;55.750;48.746;2023-05-07T02:35:45;99675.97;;;1.44;73.50
78986;BME280;68384;55.750;48.746;2023-05-07T02:36:50;99667.44;;;1.43;72.77
78986;BME280;68384;55.750;48.746;2023-05-07T02:37:57;99671.25;;;1.50;72.32
78986;BME280;68384;55.750;48.746;2023-05-07T02:39:03;99667.72;;;1.48;71.77
78986;BME280;68384;55.750;48.746;2023-05-07T02:40:08;99676.56;;;1.53;71.35
78986;BME280;68384;55.750;48.746;2023-05-07T02:41:12;99677.88;;;1.59;71.41
78986;BME280;68384;55.750;48.746;2023-05-07T02:42:15;99684.72;;;1.60;71.46
78986;BME280;68384;55.750;48.746;2023-05-07T02:43:19;99678.44;;;1.55;71.90
78986;BME280;68384;55.750;48.746;2023-05-07T02:44:23;99680.41;;;1.59;71.82
78986;BME280;68384;55.750;48.746;2023-05-07T02:45:27;99685.81;;;1.64;71.74
78986;BME280;68384;55.750;48.746;2023-05-07T02:46:30;99686.22;;;1.70;71.46
78986;BME280;68384;55.750;48.746;2023-05-07T02:47:38;99688.06;;;1.72;71.78
78986;BME280;68384;55.750;48.746;2023-05-07T02:48:41;99688.34;;;1.77;71.55
78986;BME280;68384;55.750;48.746;2023-05-07T02:49:45;99682.34;;;1.76;70.87
78986;BME280;68384;55.750;48.746;2023-05-07T02:50:48;99687.09;;;1.83;70.69
78986;BME280;68384;55.750;48.746;2023-05-07T02:51:52;99686.28;;;1.84;70.74
78986;BME280;68384;55.750;48.746;2023-05-07T02:52:58;99674.50;;;1.86;70.82
78986;BME280;68384;55.750;48.746;2023-05-07T02:54:04;99685.09;;;1.92;71.13
78986;BME280;68384;55.750;48.746;2023-05-07T02:55:08;99690.41;;;1.95;71.34
78986;BME280;68384;55.750;48.746;2023-05-07T02:56:12;99683.81;;;1.99;71.35
78986;BME280;68384;55.750;48.746;2023-05-07T02:57:15;99692.47;;;2.01;71.12
78986;BME280;68384;55.750;48.746;2023-05-07T02:58:19;99689.72;;;1.98;70.64
78986;BME280;68384;55.750;48.746;2023-05-07T02:59:22;99686.31;;;1.97;70.02
78986;BME280;68384;55.750;48.746;2023-05-07T03:00:27;99692.59;;;2.03;70.21
78986;BME280;68384;55.750;48.746;2023-05-07T03:01:42;99687.56;;;2.04;70.36
78986;BME280;68384;55.750;48.746;2023-05-07T03:02:47;99696.50;;;2.11;70.30
78986;BME280;68384;55.750;48.746;2023-05-07T03:03:51;99691.88;;;2.05;70.45
78986;BME280;68384;55.750;48.746;2023-05-07T03:04:55;99694.03;;;2.12;70.29
78986;BME280;68384;55.750;48.746;2023-05-07T03:05:58;99694.72;;;2.10;70.67
78986;BME280;68384;55.750;48.746;2023-05-07T03:07:02;99695.09;;;2.16;70.44
78986;BME280;68384;55.750;48.746;2023-05-07T03:08:05;99692.56;;;2.16;70.49
78986;BME280;68384;55.750;48.746;2023-05-07T03:09:10;99692.94;;;2.22;70.43
78986;BME280;68384;55.750;48.746;2023-05-07T03:10:14;99702.16;;;2.20;70.29
78986;BME280;68384;55.750;48.746;2023-05-07T03:11:18;99685.06;;;2.19;70.43
78986;BME280;68384;55.750;48.746;2023-05-07T03:12:22;99698.59;;;2.31;70.35
78986;BME280;68384;55.750;48.746;2023-05-07T03:13:26;99699.69;;;2.34;70.04
78986;BME280;68384;55.750;48.746;2023-05-07T03:14:29;99696.03;;;2.31;69.37
78986;BME280;68384;55.750;48.746;2023-05-07T03:15:33;99703.72;;;2.31;69.31
78986;BME280;68384;55.750;48.746;2023-05-07T03:16:36;99703.06;;;2.20;69.37
78986;BME280;68384;55.750;48.746;2023-05-07T03:17:40;99702.56;;;2.26;69.74
78986;BME280;68384;55.750;48.746;2023-05-07T03:18:43;99702.56;;;2.26;69.72
78986;BME280;68384;55.750;48.746;2023-05-07T03:19:47;99700.31;;;2.30;69.65
78986;BME280;68384;55.750;48.746;2023-05-07T03:20:51;99705.50;;;2.32;69.71
78986;BME280;68384;55.750;48.746;2023-05-07T03:21:56;99703.72;;;2.31;68.83
78986;BME280;68384;55.750;48.746;2023-05-07T03:22:59;99704.91;;;2.36;69.43
78986;BME280;68384;55.750;48.746;2023-05-07T03:24:02;99698.22;;;2.38;69.43
78986;BME280;68384;55.750;48.746;2023-05-07T03:25:07;99702.63;;;2.40;69.21
78986;BME280;68384;55.750;48.746;2023-05-07T03:26:11;99707.06;;;2.43;69.06
78986;BME280;68384;55.750;48.746;2023-05-07T03:27:14;99702.63;;;2.40;68.74
78986;BME280;68384;55.750;48.746;2023-05-07T03:28:18;99705.19;;;2.40;68.56
78986;BME280;68384;55.750;48.746;2023-05-07T03:29:27;99703.09;;;2.48;68.65
78986;BME280;68384;55.750;48.746;2023-05-07T03:30:30;99706.72;;;2.51;68.78
78986;BME280;68384;55.750;48.746;2023-05-07T03:31:32;99704.19;;;2.51;68.64
78986;BME280;68384;55.750;48.746;2023-05-07T03:32:37;99705.25;;;2.55;68.27
78986;BME280;68384;55.750;48.746;2023-05-07T03:33:52;99699.31;;;2.56;67.99
78986;BME280;68384;55.750;48.746;2023-05-07T03:34:58;99705.41;;;2.58;68.01
78986;BME280;68384;55.750;48.746;2023-05-07T03:36:01;99708.66;;;2.55;67.79
78986;BME280;68384;55.750;48.746;2023-05-07T03:37:05;99704.56;;;2.57;68.18
78986;BME280;68384;55.750;48.746;2023-05-07T03:38:09;99709.56;;;2.56;67.93
78986;BME280;68384;55.750;48.746;2023-05-07T03:39:13;99695.78;;;2.54;68.17
78986;BME280;68384;55.750;48.746;2023-05-07T03:40:19;99688.00;;;2.52;68.42
78986;BME280;68384;55.750;48.746;2023-05-07T03:41:25;99712.19;;;2.71;68.06
78986;BME280;68384;55.750;48.746;2023-05-07T03:42:32;99710.19;;;2.80;68.04
78986;BME280;68384;55.750;48.746;2023-05-07T03:43:35;99709.63;;;2.85;67.62
78986;BME280;68384;55.750;48.746;2023-05-07T03:44:42;99716.03;;;2.92;67.20
78986;BME280;68384;55.750;48.746;2023-05-07T03:45:45;99714.25;;;2.91;67.48
78986;BME280;68384;55.750;48.746;2023-05-07T03:46:57;99706.94;;;2.97;67.27
78986;BME280;68384;55.750;48.746;2023-05-07T03:48:00;99705.78;;;2.92;66.85
78986;BME280;68384;55.750;48.746;2023-05-07T03:49:04;99705.06;;;2.80;67.00
78986;BME280;68384;55.750;48.746;2023-05-07T03:50:09;99704.69;;;2.88;66.85
78986;BME280;68384;55.750;48.746;2023-05-07T03:51:14;99704.53;;;2.85;66.67
78986;BME280;68384;55.750;48.746;2023-05-07T03:52:17;99701.56;;;2.92;66.77
78986;BME280;68384;55.750;48.746;2023-05-07T03:53:24;99712.75;;;2.94;66.99
78986;BME280;68384;55.750;48.746;2023-05-07T03:54:27;99713.72;;;2.96;66.89
78986;BME280;68384;55.750;48.746;2023-05-07T03:55:33;99717.28;;;2.98;66.70
78986;BME280;68384;55.750;48.746;2023-05-07T03:56:35;99715.06;;;3.04;66.54
78986;BME280;68384;55.750;48.746;2023-05-07T03:57:40;99713.94;;;3.14;66.30
78986;BME280;68384;55.750;48.746;2023-05-07T03:58:43;99714.84;;;3.14;66.26
78986;BME280;68384;55.750;48.746;2023-05-07T03:59:47;99718.53;;;3.19;66.26
78986;BME280;68384;55.750;48.746;2023-05-07T04:00:49;99718.53;;;3.19;65.95
78986;BME280;68384;55.750;48.746;2023-05-07T04:02:01;99728.78;;;3.19;66.28
78986;BME280;68384;55.750;48.746;2023-05-07T04:03:08;99725.53;;;3.22;65.77
78986;BME280;68384;55.750;48.746;2023-05-07T04:04:12;99721.19;;;3.21;65.55
78986;BME280;68384;55.750;48.746;2023-05-07T04:05:15;99719.25;;;3.17;65.55
78986;BME280;68384;55.750;48.746;2023-05-07T04:06:22;99727.91;;;3.19;65.51
78986;BME280;68384;55.750;48.746;2023-05-07T04:07:25;99719.25;;;3.17;65.74
78986;BME280;68384;55.750;48.746;2023-05-07T04:08:29;99727.00;;;3.18;65.73
78986;BME280;68384;55.750;48.746;2023-05-07T04:09:33;99726.03;;;3.16;65.60
78986;BME280;68384;55.750;48.746;2023-05-07T04:10:38;99725.09;;;3.14;65.65
78986;BME280;68384;55.750;48.746;2023-05-07T04:11:44;99722.88;;;3.21;65.54
78986;BME280;68384;55.750;48.746;2023-05-07T04:12:49;99726.22;;;3.19;65.53
78986;BME280;68384;55.750;48.746;2023-05-07T04:13:56;99719.97;;;3.14;65.32
78986;BME280;68384;55.750;48.746;2023-05-07T04:15:00;99720.28;;;3.06;65.76
78986;BME280;68384;55.750;48.746;2023-05-07T04:16:04;99725.50;;;3.07;65.47
78986;BME280;68384;55.750;48.746;2023-05-07T04:17:12;99729.84;;;3.08;65.70
78986;BME280;68384;55.750;48.746;2023-05-07T04:18:14;99728.88;;;3.21;65.63
78986;BME280;68384;55.750;48.746;2023-05-07T04:19:21;99731.09;;;3.30;65.59
78986;BME280;68384;55.750;48.746;2023-05-07T04:20:27;99710.06;;;3.06;64.75
78986;BME280;68384;55.750;48.746;2023-05-07T04:21:36;99723.16;;;3.25;64.92
78986;BME280;68384;55.750;48.746;2023-05-07T04:22:39;99735.44;;;3.31;64.37
78986;BME280;68384;55.750;48.746;2023-05-07T04:23:42;99728.16;;;3.24;64.42
78986;BME280;68384;55.750;48.746;2023-05-07T04:24:47;99731.09;;;3.30;64.17
78986;BME280;68384;55.750;48.746;2023-05-07T04:25:52;99726.84;;;3.30;63.69
78986;BME280;68384;55.750;48.746;2023-05-07T04:27:03;99728.53;;;3.30;63.87
78986;BME280;68384;55.750;48.746;2023-05-07T04:28:06;99728.28;;;3.40;63.53
78986;BME280;68384;55.750;48.746;2023-05-07T04:29:11;99735.16;;;3.41;63.51
78986;BME280;68384;55.750;48.746;2023-05-07T04:30:14;99739.31;;;3.39;63.37
78986;BME280;68384;55.750;48.746;2023-05-07T04:31:18;99735.00;;;3.52;62.79
78986;BME280;68384;55.750;48.746;2023-05-07T04:32:25;99742.97;;;3.42;63.40
78986;BME280;68384;55.750;48.746;2023-05-07T04:33:29;99737.81;;;3.57;63.24
78986;BME280;68384;55.750;48.746;2023-05-07T04:34:32;99737.66;;;3.68;63.00
78986;BME280;68384;55.750;48.746;2023-05-07T04:35:36;99735.78;;;3.66;62.61
78986;BME280;68384;55.750;48.746;2023-05-07T04:36:40;99708.44;;;3.81;61.85
78986;BME280;68384;55.750;48.746;2023-05-07T04:37:47;99740.75;;;3.63;62.32
78986;BME280;68384;55.750;48.746;2023-05-07T04:38:50;99731.91;;;3.72;62.76
78986;BME280;68384;55.750;48.746;2023-05-07T04:39:55;99735.50;;;3.76;62.55
78986;BME280;68384;55.750;48.746;2023-05-07T04:41:02;99737.66;;;3.83;63.14
78986;BME280;68384;55.750;48.746;2023-05-07T04:42:14;99740.22;;;3.83;63.37
78986;BME280;68384;55.750;48.746;2023-05-07T04:43:19;99741.69;;;3.94;62.61
78986;BME280;68384;55.750;48.746;2023-05-07T04:44:24;99730.28;;;3.89;61.93
78986;BME280;68384;55.750;48.746;2023-05-07T04:45:29;99738.50;;;3.98;61.50
78986;BME280;68384;55.750;48.746;2023-05-07T04:46:33;99729.47;;;4.05;61.64
78986;BME280;68384;55.750;48.746;2023-05-07T04:47:37;99728.81;;;4.09;61.88
78986;BME280;68384;55.750;48.746;2023-05-07T04:48:41;99733.34;;;4.13;61.81
78986;BME280;68384;55.750;48.746;2023-05-07T04:49:46;99734.69;;;4.06;61.95
78986;BME280;68384;55.750;48.746;2023-05-07T04:50:49;99727.63;;;4.02;62.39
78986;BME280;68384;55.750;48.746;2023-05-07T04:51:54;99725.06;;;4.02;61.83
78986;BME280;68384;55.750;48.746;2023-05-07T04:52:58;99733.13;;;3.94;61.97
78986;BME280;68384;55.750;48.746;2023-05-07T04:54:02;99732.03;;;4.05;61.45
78986;BME280;68384;55.750;48.746;2023-05-07T04:55:06;99727.16;;;4.09;61.07
78986;BME280;68384;55.750;48.746;2023-05-07T04:56:15;99733.69;;;4.19;60.14
78986;BME280;68384;55.750;48.746;2023-05-07T04:57:19;99738.91;;;4.20;60.50
78986;BME280;68384;55.750;48.746;2023-05-07T04:58:24;99739.44;;;4.15;60.94
78986;BME280;68384;55.750;48.746;2023-05-07T04:59:27;99733.03;;;4.23;61.14
78986;BME280;68384;55.750;48.746;2023-05-07T05:00:31;99742.69;;;4.27;61.22
78986;BME280;68384;55.750;48.746;2023-05-07T05:01:35;99736.13;;;4.32;61.52
78986;BME280;68384;55.750;48.746;2023-05-07T05:02:39;99745.56;;;4.33;60.68
78986;BME280;68384;55.750;48.746;2023-05-07T05:03:43;99739.66;;;4.34;60.55
78986;BME280;68384;55.750;48.746;2023-05-07T05:04:46;99744.78;;;4.34;60.36
78986;BME280;68384;55.750;48.746;2023-05-07T05:05:50;99741.44;;;4.35;60.13
78986;BME280;68384;55.750;48.746;2023-05-07T05:06:57;99746.72;;;4.38;60.34
78986;BME280;68384;55.750;48.746;2023-05-07T05:08:00;99738.69;;;4.32;60.53
78986;BME280;68384;55.750;48.746;2023-05-07T05:09:04;99742.41;;;4.22;60.58
78986;BME280;68384;55.750;48.746;2023-05-07T05:10:08;99753.94;;;4.14;60.45
78986;BME280;68384;55.750;48.746;2023-05-07T05:11:16;99741.38;;;4.19;60.48
78986;BME280;68384;55.750;48.746;2023-05-07T05:12:19;99745.56;;;4.02;60.27
78986;BME280;68384;55.750;48.746;2023-05-07T05:13:24;99744.91;;;4.21;60.31
78986;BME280;68384;55.750;48.746;2023-05-07T05:14:27;99743.41;;;4.24;59.06
78986;BME280;68384;55.750;48.746;2023-05-07T05:15:31;99730.97;;;4.16;58.90
78986;BME280;68384;55.750;48.746;2023-05-07T05:16:36;99747.09;;;4.29;58.83
78986;BME280;68384;55.750;48.746;2023-05-07T05:17:40;99742.16;;;4.32;58.91
78986;BME280;68384;55.750;48.746;2023-05-07T05:18:43;99748.13;;;4.33;58.13
78986;BME280;68384;55.750;48.746;2023-05-07T05:19:50;99746.50;;;4.50;58.68
78986;BME280;68384;55.750;48.746;2023-05-07T05:20:53;99744.38;;;4.57;58.82
78986;BME280;68384;55.750;48.746;2023-05-07T05:21:58;99746.50;;;4.66;58.89
78986;BME280;68384;55.750;48.746;2023-05-07T05:23:01;99752.31;;;4.62;58.57
78986;BME280;68384;55.750;48.746;2023-05-07T05:24:06;99747.22;;;4.47;58.86
78986;BME280;68384;55.750;48.746;2023-05-07T05:25:09;99743.75;;;4.47;59.15
78986;BME280;68384;55.750;48.746;2023-05-07T05:26:13;99744.72;;;4.32;59.08
78986;BME280;68384;55.750;48.746;2023-05-07T05:27:17;99747.09;;;4.29;58.80
78986;BME280;68384;55.750;48.746;2023-05-07T05:28:21;99747.91;;;4.28;58.75
78986;BME280;68384;55.750;48.746;2023-05-07T05:29:24;99746.75;;;4.23;59.54
78986;BME280;68384;55.750;48.746;2023-05-07T05:30:28;99752.69;;;4.22;59.66
78986;BME280;68384;55.750;48.746;2023-05-07T05:31:31;99756.34;;;4.11;60.16
78986;BME280;68384;55.750;48.746;2023-05-07T05:32:36;99752.38;;;4.02;60.41
78986;BME280;68384;55.750;48.746;2023-05-07T05:33:39;99760.88;;;4.01;60.23
78986;BME280;68384;55.750;48.746;2023-05-07T05:34:43;99767.06;;;4.04;60.03
78986;BME280;68384;55.750;48.746;2023-05-07T05:35:47;99750.91;;;3.91;59.92
78986;BME280;68384;55.750;48.746;2023-05-07T05:36:50;99757.28;;;3.83;59.75
78986;BME280;68384;55.750;48.746;2023-05-07T05:37:55;99757.34;;;3.84;59.40
78986;BME280;68384;55.750;48.746;2023-05-07T05:38:58;99748.69;;;3.82;59.29
78986;BME280;68384;55.750;48.746;2023-05-07T05:40:04;99753.22;;;3.86;59.57
78986;BME280;68384;55.750;48.746;2023-05-07T05:41:06;99762.81;;;3.90;59.64
78986;BME280;68384;55.750;48.746;2023-05-07T05:42:10;99777.84;;;3.84;59.19